createdAt,value
2019-03-06T07:14:38.713Z,4.37
2019-03-06T07:24:51.292Z,4.50
2019-03-06T07:35:15.279Z,4.75
2019-03-06T07:45:43.441Z,4.81
2019-03-06T07:55:49.164Z,5.00
2019-03-06T08:05:54.307Z,5.31
2019-03-06T08:16:00.164Z,5.37
2019-03-06T08:26:05.520Z,5.44
2019-03-06T08:36:10.257Z,5.75
2019-03-06T08:46:19.694Z,5.69
2019-03-06T08:56:35.280Z,6.31
2019-03-06T09:06:47.367Z,5.81
2019-03-06T09:16:53.046Z,5.69
2019-03-06T09:27:18.485Z,5.31
2019-03-06T09:37:27.142Z,5.44
2019-03-06T09:47:36.839Z,5.44
2019-03-06T09:57:43.317Z,5.87
2019-03-06T10:07:52.043Z,6.56
2019-03-06T10:17:58.370Z,7.19
2019-03-06T10:28:06.374Z,8.13
2019-03-06T10:38:16.417Z,9.13
2019-03-06T10:48:14.171Z,8.94
2019-03-06T10:58:19.286Z,9.63
2019-03-06T11:08:25.029Z,9.81
2019-03-06T11:18:30.115Z,9.38
2019-03-06T11:28:35.306Z,10.56
2019-03-06T11:38:39.016Z,11.69
2019-03-06T11:48:44.124Z,12.13
2019-03-06T11:58:48.241Z,11.69
2019-03-06T12:08:52.146Z,12.44
2019-03-06T12:18:56.104Z,12.75
2019-03-06T12:29:02.244Z,13.31
2019-03-06T12:39:06.420Z,14.38
2019-03-06T12:49:13.290Z,14.50
2019-03-06T12:59:17.142Z,15.88
2019-03-06T13:19:39.273Z,17.00
2019-03-06T13:29:43.210Z,17.50
2019-03-06T13:39:48.097Z,17.06
2019-03-06T13:49:52.113Z,18.87
2019-03-06T13:59:56.644Z,17.50
2019-03-06T14:10:01.297Z,17.06
2019-03-06T14:20:06.261Z,15.19
2019-03-06T14:30:16.389Z,17.25
2019-03-06T14:40:21.369Z,18.25
2019-03-06T14:50:25.223Z,15.75
2019-03-06T15:00:29.310Z,15.69
2019-03-06T15:10:33.106Z,13.94
2019-03-06T15:20:38.093Z,13.62
2019-03-06T15:30:43.116Z,13.38
2019-03-06T15:40:48.233Z,13.19
2019-03-06T15:50:52.079Z,12.44
2019-03-06T16:00:56.748Z,11.56
2019-03-06T16:11:02.602Z,11.25
2019-03-06T16:21:06.103Z,10.94
2019-03-06T16:31:11.412Z,10.31
2019-03-06T16:41:15.122Z,10.00
2019-03-06T16:51:21.104Z,9.81
2019-03-06T17:01:27.258Z,9.44
2019-03-06T17:11:31.131Z,9.13
2019-03-06T17:21:36.235Z,9.00
2019-03-06T17:31:40.131Z,8.81
2019-03-06T17:41:44.688Z,8.63
2019-03-06T17:51:50.646Z,8.25
2019-03-06T18:01:55.286Z,8.06
2019-03-06T18:11:59.105Z,8.19
2019-03-06T18:22:03.114Z,7.94
2019-03-06T18:32:08.090Z,7.50
2019-03-06T18:42:12.971Z,7.62
2019-03-06T18:52:20.591Z,7.44
2019-03-06T19:02:24.636Z,7.19
2019-03-06T19:12:30.272Z,7.19
2019-03-06T19:22:34.115Z,7.12
2019-03-06T19:32:40.250Z,7.00
2019-03-06T19:44:30.124Z,6.69
2019-03-06T19:54:34.654Z,6.87
2019-03-06T20:07:25.209Z,6.62
2019-03-06T20:17:29.342Z,6.75
2019-03-06T20:27:33.119Z,6.56
2019-03-06T20:37:37.109Z,6.44
2019-03-06T20:47:41.115Z,6.44
2019-03-06T20:57:45.691Z,6.19
2019-03-06T21:07:50.240Z,6.19
2019-03-06T21:17:54.128Z,6.12
2019-03-06T21:27:58.675Z,5.81
2019-03-06T21:38:02.996Z,6.00
2019-03-06T21:48:07.127Z,5.87
2019-03-06T21:58:12.304Z,5.87
2019-03-06T22:08:17.714Z,5.69
2019-03-06T22:18:22.276Z,5.87
2019-03-06T22:28:26.220Z,5.62
2019-03-06T22:38:31.349Z,5.75
2019-03-06T22:48:36.916Z,5.50
2019-03-06T22:58:42.305Z,5.50
2019-03-06T23:08:46.235Z,5.31
2019-03-06T23:18:51.282Z,5.56
2019-03-06T23:28:55.140Z,5.37
2019-03-06T23:39:00.143Z,5.50
2019-03-06T23:49:06.373Z,5.50
2019-03-06T23:59:10.225Z,5.56
